sensor_id;sensor_type;location;lat;lon;timestamp;P1;durP1;ratioP1;P2;durP2;ratioP2
4565;SDS011;2295;51.050;14.608;2022-10-31T00:00:52;49.70;;;15.73;;
4565;SDS011;2295;51.050;14.608;2022-10-31T00:03:20;37.83;;;15.70;;
4565;SDS011;2295;51.050;14.608;2022-10-31T00:05:49;38.28;;;15.07;;
4565;SDS011;2295;51.050;14.608;2022-10-31T00:08:18;38.00;;;16.02;;
4565;SDS011;2295;51.050;14.608;2022-10-31T00:10:46;36.92;;;15.63;;
4565;SDS011;2295;51.050;14.608;2022-10-31T00:13:14;35.35;;;16.33;;
4565;SDS011;2295;51.050;14.608;2022-10-31T00:15:43;41.22;;;17.65;;
4565;SDS011;2295;51.050;14.608;2022-10-31T00:18:13;37.83;;;17.10;;
4565;SDS011;2295;51.050;14.608;2022-10-31T00:20:41;43.67;;;17.67;;
4565;SDS011;2295;51.050;14.608;2022-10-31T00:23:09;39.00;;;16.80;;
4565;SDS011;2295;51.050;14.608;2022-10-31T00:25:39;40.08;;;17.52;;
4565;SDS011;2295;51.050;14.608;2022-10-31T00:28:07;47.95;;;18.13;;
4565;SDS011;2295;51.050;14.608;2022-10-31T00:30:38;53.47;;;18.58;;
4565;SDS011;2295;51.050;14.608;2022-10-31T00:33:06;49.95;;;18.70;;
4565;SDS011;2295;51.050;14.608;2022-10-31T00:35:36;33.05;;;16.08;;
4565;SDS011;2295;51.050;14.608;2022-10-31T00:38:04;43.88;;;18.00;;
4565;SDS011;2295;51.050;14.608;2022-10-31T00:40:33;42.33;;;16.92;;
4565;SDS011;2295;51.050;14.608;2022-10-31T00:43:01;43.13;;;17.23;;
4565;SDS011;2295;51.050;14.608;2022-10-31T00:45:30;40.42;;;16.42;;
4565;SDS011;2295;51.050;14.608;2022-10-31T00:47:58;34.53;;;15.52;;
4565;SDS011;2295;51.050;14.608;2022-10-31T00:50:27;40.45;;;15.73;;
4565;SDS011;2295;51.050;14.608;2022-10-31T00:52:56;63.45;;;19.40;;
4565;SDS011;2295;51.050;14.608;2022-10-31T00:55:25;46.22;;;19.02;;
4565;SDS011;2295;51.050;14.608;2022-10-31T00:57:53;46.42;;;18.02;;
4565;SDS011;2295;51.050;14.608;2022-10-31T01:00:22;46.55;;;18.35;;
4565;SDS011;2295;51.050;14.608;2022-10-31T01:02:50;54.40;;;21.10;;
4565;SDS011;2295;51.050;14.608;2022-10-31T01:05:19;50.45;;;19.75;;
4565;SDS011;2295;51.050;14.608;2022-10-31T01:07:47;50.58;;;20.15;;
4565;SDS011;2295;51.050;14.608;2022-10-31T01:10:17;41.15;;;18.30;;
4565;SDS011;2295;51.050;14.608;2022-10-31T01:12:47;50.22;;;18.85;;
4565;SDS011;2295;51.050;14.608;2022-10-31T01:15:17;39.85;;;18.50;;
4565;SDS011;2295;51.050;14.608;2022-10-31T01:17:46;38.50;;;18.45;;
4565;SDS011;2295;51.050;14.608;2022-10-31T01:20:15;41.90;;;18.40;;
4565;SDS011;2295;51.050;14.608;2022-10-31T01:22:44;37.47;;;18.30;;
4565;SDS011;2295;51.050;14.608;2022-10-31T01:25:12;43.03;;;18.77;;
4565;SDS011;2295;51.050;14.608;2022-10-31T01:27:42;41.05;;;16.88;;
4565;SDS011;2295;51.050;14.608;2022-10-31T01:30:12;44.58;;;17.35;;
4565;SDS011;2295;51.050;14.608;2022-10-31T01:32:40;41.10;;;17.30;;
4565;SDS011;2295;51.050;14.608;2022-10-31T01:35:08;37.47;;;17.05;;
4565;SDS011;2295;51.050;14.608;2022-10-31T01:37:36;41.03;;;16.75;;
4565;SDS011;2295;51.050;14.608;2022-10-31T01:40:05;43.10;;;17.13;;
4565;SDS011;2295;51.050;14.608;2022-10-31T01:42:34;49.25;;;19.75;;
4565;SDS011;2295;51.050;14.608;2022-10-31T01:45:04;46.97;;;17.98;;
4565;SDS011;2295;51.050;14.608;2022-10-31T01:47:38;39.35;;;18.33;;
4565;SDS011;2295;51.050;14.608;2022-10-31T01:50:13;38.42;;;18.63;;
4565;SDS011;2295;51.050;14.608;2022-10-31T01:52:47;31.75;;;17.33;;
4565;SDS011;2295;51.050;14.608;2022-10-31T01:55:20;38.20;;;18.42;;
4565;SDS011;2295;51.050;14.608;2022-10-31T01:57:56;34.22;;;18.15;;
4565;SDS011;2295;51.050;14.608;2022-10-31T02:00:29;39.70;;;16.90;;
4565;SDS011;2295;51.050;14.608;2022-10-31T02:02:58;34.83;;;17.10;;
4565;SDS011;2295;51.050;14.608;2022-10-31T02:05:28;35.25;;;15.82;;
4565;SDS011;2295;51.050;14.608;2022-10-31T02:07:58;30.55;;;16.45;;
4565;SDS011;2295;51.050;14.608;2022-10-31T02:10:30;34.05;;;16.50;;
4565;SDS011;2295;51.050;14.608;2022-10-31T02:13:01;41.33;;;18.02;;
4565;SDS011;2295;51.050;14.608;2022-10-31T02:15:34;31.98;;;17.75;;
4565;SDS011;2295;51.050;14.608;2022-10-31T02:18:03;48.22;;;18.17;;
4565;SDS011;2295;51.050;14.608;2022-10-31T02:20:35;39.20;;;17.48;;
4565;SDS011;2295;51.050;14.608;2022-10-31T02:23:17;41.47;;;17.45;;
4565;SDS011;2295;51.050;14.608;2022-10-31T02:26:05;44.67;;;16.45;;
4565;SDS011;2295;51.050;14.608;2022-10-31T02:28:51;36.03;;;16.40;;
4565;SDS011;2295;51.050;14.608;2022-10-31T02:31:31;49.13;;;18.63;;
4565;SDS011;2295;51.050;14.608;2022-10-31T02:34:09;31.95;;;16.45;;
4565;SDS011;2295;51.050;14.608;2022-10-31T02:36:46;33.53;;;15.88;;
4565;SDS011;2295;51.050;14.608;2022-10-31T02:39:22;39.45;;;16.80;;
4565;SDS011;2295;51.050;14.608;2022-10-31T02:41:56;37.28;;;16.13;;
4565;SDS011;2295;51.050;14.608;2022-10-31T02:44:35;33.97;;;15.18;;
4565;SDS011;2295;51.050;14.608;2022-10-31T02:47:08;37.78;;;14.82;;
4565;SDS011;2295;51.050;14.608;2022-10-31T02:49:43;32.30;;;15.35;;
4565;SDS011;2295;51.050;14.608;2022-10-31T02:52:18;28.08;;;15.25;;
4565;SDS011;2295;51.050;14.608;2022-10-31T02:54:48;30.38;;;13.60;;
4565;SDS011;2295;51.050;14.608;2022-10-31T02:57:17;30.15;;;14.73;;
4565;SDS011;2295;51.050;14.608;2022-10-31T02:59:53;27.65;;;13.35;;
4565;SDS011;2295;51.050;14.608;2022-10-31T03:02:40;26.63;;;13.50;;
4565;SDS011;2295;51.050;14.608;2022-10-31T03:08:09;27.85;;;13.27;;
4565;SDS011;2295;51.050;14.608;2022-10-31T03:10:45;25.15;;;14.18;;
4565;SDS011;2295;51.050;14.608;2022-10-31T03:13:19;28.45;;;13.35;;
4565;SDS011;2295;51.050;14.608;2022-10-31T03:15:53;26.83;;;12.80;;
4565;SDS011;2295;51.050;14.608;2022-10-31T03:18:31;23.85;;;13.50;;
4565;SDS011;2295;51.050;14.608;2022-10-31T03:21:04;24.95;;;13.15;;
4565;SDS011;2295;51.050;14.608;2022-10-31T03:23:35;28.67;;;13.55;;
4565;SDS011;2295;51.050;14.608;2022-10-31T03:26:05;25.85;;;13.18;;
4565;SDS011;2295;51.050;14.608;2022-10-31T03:28:36;29.17;;;11.98;;
4565;SDS011;2295;51.050;14.608;2022-10-31T03:31:09;26.85;;;13.50;;
4565;SDS011;2295;51.050;14.608;2022-10-31T03:33:42;30.23;;;13.45;;
4565;SDS011;2295;51.050;14.608;2022-10-31T03:36:13;20.70;;;12.00;;
4565;SDS011;2295;51.050;14.608;2022-10-31T03:38:42;25.30;;;13.02;;
4565;SDS011;2295;51.050;14.608;2022-10-31T03:41:15;28.30;;;12.40;;
4565;SDS011;2295;51.050;14.608;2022-10-31T03:43:48;26.20;;;13.52;;
4565;SDS011;2295;51.050;14.608;2022-10-31T03:46:23;32.92;;;11.90;;
4565;SDS011;2295;51.050;14.608;2022-10-31T03:48:53;22.08;;;12.15;;
4565;SDS011;2295;51.050;14.608;2022-10-31T03:51:22;24.20;;;11.70;;
4565;SDS011;2295;51.050;14.608;2022-10-31T03:53:56;21.73;;;11.98;;
4565;SDS011;2295;51.050;14.608;2022-10-31T03:56:31;28.77;;;12.70;;
4565;SDS011;2295;51.050;14.608;2022-10-31T03:59:04;28.75;;;12.07;;
4565;SDS011;2295;51.050;14.608;2022-10-31T04:01:38;25.92;;;12.07;;
4565;SDS011;2295;51.050;14.608;2022-10-31T04:04:12;26.20;;;12.30;;
4565;SDS011;2295;51.050;14.608;2022-10-31T04:06:42;33.38;;;12.77;;
4565;SDS011;2295;51.050;14.608;2022-10-31T04:09:12;33.40;;;12.98;;
4565;SDS011;2295;51.050;14.608;2022-10-31T04:11:44;21.58;;;11.00;;
4565;SDS011;2295;51.050;14.608;2022-10-31T04:14:16;34.83;;;12.02;;
4565;SDS011;2295;51.050;14.608;2022-10-31T04:16:44;25.83;;;11.23;;
4565;SDS011;2295;51.050;14.608;2022-10-31T04:19:14;22.98;;;11.30;;
4565;SDS011;2295;51.050;14.608;2022-10-31T04:21:42;23.08;;;10.20;;
4565;SDS011;2295;51.050;14.608;2022-10-31T04:24:11;31.50;;;11.43;;
4565;SDS011;2295;51.050;14.608;2022-10-31T04:26:39;26.17;;;11.95;;
4565;SDS011;2295;51.050;14.608;2022-10-31T04:29:07;23.08;;;10.70;;
4565;SDS011;2295;51.050;14.608;2022-10-31T04:31:36;28.73;;;11.10;;
4565;SDS011;2295;51.050;14.608;2022-10-31T04:34:04;28.17;;;10.73;;
4565;SDS011;2295;51.050;14.608;2022-10-31T04:36:35;21.08;;;10.73;;
4565;SDS011;2295;51.050;14.608;2022-10-31T04:39:03;17.90;;;10.63;;
4565;SDS011;2295;51.050;14.608;2022-10-31T04:41:31;24.48;;;11.35;;
4565;SDS011;2295;51.050;14.608;2022-10-31T04:44:00;30.45;;;10.00;;
4565;SDS011;2295;51.050;14.608;2022-10-31T04:46:28;24.10;;;10.15;;
4565;SDS011;2295;51.050;14.608;2022-10-31T04:48:56;18.75;;;9.82;;
4565;SDS011;2295;51.050;14.608;2022-10-31T04:51:25;23.73;;;10.85;;
4565;SDS011;2295;51.050;14.608;2022-10-31T04:53:54;21.23;;;9.40;;
4565;SDS011;2295;51.050;14.608;2022-10-31T04:56:23;21.35;;;10.38;;
4565;SDS011;2295;51.050;14.608;2022-10-31T04:58:51;21.17;;;10.13;;
4565;SDS011;2295;51.050;14.608;2022-10-31T05:01:19;25.83;;;10.65;;
4565;SDS011;2295;51.050;14.608;2022-10-31T05:03:48;18.88;;;9.48;;
4565;SDS011;2295;51.050;14.608;2022-10-31T05:06:16;20.70;;;9.60;;
4565;SDS011;2295;51.050;14.608;2022-10-31T05:08:45;21.77;;;9.63;;
4565;SDS011;2295;51.050;14.608;2022-10-31T05:11:14;21.02;;;9.25;;
4565;SDS011;2295;51.050;14.608;2022-10-31T05:13:42;27.92;;;10.40;;
4565;SDS011;2295;51.050;14.608;2022-10-31T05:16:11;13.88;;;8.85;;
4565;SDS011;2295;51.050;14.608;2022-10-31T05:18:39;20.15;;;9.20;;
4565;SDS011;2295;51.050;14.608;2022-10-31T05:21:07;24.05;;;10.82;;
4565;SDS011;2295;51.050;14.608;2022-10-31T05:23:36;16.00;;;9.20;;
4565;SDS011;2295;51.050;14.608;2022-10-31T05:26:09;24.63;;;8.93;;
4565;SDS011;2295;51.050;14.608;2022-10-31T05:28:39;22.75;;;9.05;;
4565;SDS011;2295;51.050;14.608;2022-10-31T05:31:07;31.17;;;10.27;;
4565;SDS011;2295;51.050;14.608;2022-10-31T05:33:36;24.67;;;8.90;;
4565;SDS011;2295;51.050;14.608;2022-10-31T05:36:04;20.17;;;8.15;;
4565;SDS011;2295;51.050;14.608;2022-10-31T05:38:42;22.13;;;8.40;;
4565;SDS011;2295;51.050;14.608;2022-10-31T05:41:10;24.27;;;9.93;;
4565;SDS011;2295;51.050;14.608;2022-10-31T05:43:40;18.08;;;8.57;;
4565;SDS011;2295;51.050;14.608;2022-10-31T05:46:08;14.70;;;8.43;;
4565;SDS011;2295;51.050;14.608;2022-10-31T05:48:36;22.10;;;9.85;;
4565;SDS011;2295;51.050;14.608;2022-10-31T05:51:05;20.83;;;10.20;;
4565;SDS011;2295;51.050;14.608;2022-10-31T05:53:33;92.88;;;38.60;;
4565;SDS011;2295;51.050;14.608;2022-10-31T05:56:01;76.82;;;35.00;;
4565;SDS011;2295;51.050;14.608;2022-10-31T05:58:29;50.78;;;26.88;;
4565;SDS011;2295;51.050;14.608;2022-10-31T06:00:59;50.65;;;26.52;;
4565;SDS011;2295;51.050;14.608;2022-10-31T06:03:27;36.28;;;17.38;;
4565;SDS011;2295;51.050;14.608;2022-10-31T06:05:56;26.60;;;14.63;;
4565;SDS011;2295;51.050;14.608;2022-10-31T06:08:24;22.20;;;12.63;;
4565;SDS011;2295;51.050;14.608;2022-10-31T06:10:53;32.08;;;13.02;;
4565;SDS011;2295;51.050;14.608;2022-10-31T06:13:22;25.02;;;12.68;;
4565;SDS011;2295;51.050;14.608;2022-10-31T06:15:50;22.35;;;11.77;;
4565;SDS011;2295;51.050;14.608;2022-10-31T06:18:20;25.67;;;12.32;;
4565;SDS011;2295;51.050;14.608;2022-10-31T06:20:48;17.10;;;9.70;;
4565;SDS011;2295;51.050;14.608;2022-10-31T06:23:17;16.10;;;9.50;;
4565;SDS011;2295;51.050;14.608;2022-10-31T06:25:48;19.27;;;10.32;;
4565;SDS011;2295;51.050;14.608;2022-10-31T06:28:16;19.80;;;9.88;;
4565;SDS011;2295;51.050;14.608;2022-10-31T06:30:45;18.58;;;10.07;;
4565;SDS011;2295;51.050;14.608;2022-10-31T06:33:13;28.48;;;10.85;;
4565;SDS011;2295;51.050;14.608;2022-10-31T06:35:46;21.27;;;9.90;;
4565;SDS011;2295;51.050;14.608;2022-10-31T06:38:14;22.30;;;9.80;;
4565;SDS011;2295;51.050;14.608;2022-10-31T06:40:43;18.98;;;9.65;;
4565;SDS011;2295;51.050;14.608;2022-10-31T06:43:11;24.38;;;11.30;;
4565;SDS011;2295;51.050;14.608;2022-10-31T06:45:41;22.80;;;11.32;;
4565;SDS011;2295;51.050;14.608;2022-10-31T06:48:09;25.65;;;13.07;;
4565;SDS011;2295;51.050;14.608;2022-10-31T06:50:43;22.40;;;13.43;;
4565;SDS011;2295;51.050;14.608;2022-10-31T06:53:13;26.50;;;13.85;;
4565;SDS011;2295;51.050;14.608;2022-10-31T06:55:41;21.38;;;12.25;;
4565;SDS011;2295;51.050;14.608;2022-10-31T06:58:10;22.55;;;11.85;;
4565;SDS011;2295;51.050;14.608;2022-10-31T07:00:39;17.45;;;11.30;;
4565;SDS011;2295;51.050;14.608;2022-10-31T07:03:09;23.35;;;11.48;;
4565;SDS011;2295;51.050;14.608;2022-10-31T07:05:39;23.48;;;10.45;;
4565;SDS011;2295;51.050;14.608;2022-10-31T07:08:08;22.13;;;11.18;;
4565;SDS011;2295;51.050;14.608;2022-10-31T07:10:39;22.00;;;12.18;;
4565;SDS011;2295;51.050;14.608;2022-10-31T07:13:09;30.88;;;12.95;;
4565;SDS011;2295;51.050;14.608;2022-10-31T07:15:40;22.77;;;13.00;;
4565;SDS011;2295;51.050;14.608;2022-10-31T07:18:10;22.67;;;14.02;;
4565;SDS011;2295;51.050;14.608;2022-10-31T07:20:39;35.88;;;13.68;;
4565;SDS011;2295;51.050;14.608;2022-10-31T07:23:07;27.35;;;14.65;;
4565;SDS011;2295;51.050;14.608;2022-10-31T07:25:38;35.45;;;15.98;;
4565;SDS011;2295;51.050;14.608;2022-10-31T07:28:08;30.60;;;14.93;;
4565;SDS011;2295;51.050;14.608;2022-10-31T07:30:37;24.95;;;15.13;;
4565;SDS011;2295;51.050;14.608;2022-10-31T07:33:05;24.25;;;14.48;;
4565;SDS011;2295;51.050;14.608;2022-10-31T07:35:34;30.20;;;13.35;;
4565;SDS011;2295;51.050;14.608;2022-10-31T07:38:08;32.00;;;12.90;;
4565;SDS011;2295;51.050;14.608;2022-10-31T07:40:39;28.27;;;15.35;;
4565;SDS011;2295;51.050;14.608;2022-10-31T07:43:08;36.47;;;16.42;;
4565;SDS011;2295;51.050;14.608;2022-10-31T07:45:40;23.50;;;14.00;;
4565;SDS011;2295;51.050;14.608;2022-10-31T07:48:08;24.80;;;12.63;;
4565;SDS011;2295;51.050;14.608;2022-10-31T07:50:36;25.03;;;13.03;;
4565;SDS011;2295;51.050;14.608;2022-10-31T07:53:06;19.63;;;12.00;;
4565;SDS011;2295;51.050;14.608;2022-10-31T07:55:35;16.13;;;11.07;;
4565;SDS011;2295;51.050;14.608;2022-10-31T07:58:05;15.83;;;10.67;;
4565;SDS011;2295;51.050;14.608;2022-10-31T08:00:36;14.20;;;8.13;;
4565;SDS011;2295;51.050;14.608;2022-10-31T08:03:06;13.70;;;7.63;;
4565;SDS011;2295;51.050;14.608;2022-10-31T08:05:35;12.27;;;6.40;;
4565;SDS011;2295;51.050;14.608;2022-10-31T08:08:04;9.93;;;5.60;;
4565;SDS011;2295;51.050;14.608;2022-10-31T08:10:33;7.47;;;4.33;;
4565;SDS011;2295;51.050;14.608;2022-10-31T08:13:02;7.50;;;3.77;;
4565;SDS011;2295;51.050;14.608;2022-10-31T08:15:33;5.97;;;4.00;;
4565;SDS011;2295;51.050;14.608;2022-10-31T08:18:04;7.83;;;3.43;;
4565;SDS011;2295;51.050;14.608;2022-10-31T08:20:36;11.40;;;3.60;;
4565;SDS011;2295;51.050;14.608;2022-10-31T08:23:04;10.50;;;4.10;;
4565;SDS011;2295;51.050;14.608;2022-10-31T08:25:33;5.77;;;3.40;;
4565;SDS011;2295;51.050;14.608;2022-10-31T08:28:06;12.50;;;3.57;;
4565;SDS011;2295;51.050;14.608;2022-10-31T08:30:36;14.90;;;3.90;;
4565;SDS011;2295;51.050;14.608;2022-10-31T08:33:05;5.90;;;3.63;;
4565;SDS011;2295;51.050;14.608;2022-10-31T08:35:36;10.10;;;3.30;;
4565;SDS011;2295;51.050;14.608;2022-10-31T08:38:04;9.07;;;3.90;;
4565;SDS011;2295;51.050;14.608;2022-10-31T08:40:34;10.30;;;3.40;;
4565;SDS011;2295;51.050;14.608;2022-10-31T08:43:04;7.00;;;3.50;;
4565;SDS011;2295;51.050;14.608;2022-10-31T08:45:36;6.83;;;3.40;;
4565;SDS011;2295;51.050;14.608;2022-10-31T08:48:11;9.10;;;3.60;;
4565;SDS011;2295;51.050;14.608;2022-10-31T08:50:40;12.80;;;3.90;;
4565;SDS011;2295;51.050;14.608;2022-10-31T08:53:11;8.07;;;4.10;;
4565;SDS011;2295;51.050;14.608;2022-10-31T08:55:41;12.40;;;4.80;;
4565;SDS011;2295;51.050;14.608;2022-10-31T08:58:12;19.33;;;4.93;;
4565;SDS011;2295;51.050;14.608;2022-10-31T09:00:41;12.60;;;4.77;;
4565;SDS011;2295;51.050;14.608;2022-10-31T09:03:11;11.40;;;4.70;;
4565;SDS011;2295;51.050;14.608;2022-10-31T09:05:41;9.90;;;4.90;;
4565;SDS011;2295;51.050;14.608;2022-10-31T09:08:10;10.17;;;4.40;;
4565;SDS011;2295;51.050;14.608;2022-10-31T09:10:42;11.93;;;5.20;;
4565;SDS011;2295;51.050;14.608;2022-10-31T09:13:13;12.97;;;5.50;;
4565;SDS011;2295;51.050;14.608;2022-10-31T09:15:44;15.77;;;6.17;;
4565;SDS011;2295;51.050;14.608;2022-10-31T09:18:14;11.70;;;6.10;;
4565;SDS011;2295;51.050;14.608;2022-10-31T09:20:48;16.97;;;6.13;;
4565;SDS011;2295;51.050;14.608;2022-10-31T09:23:18;19.60;;;6.87;;
4565;SDS011;2295;51.050;14.608;2022-10-31T09:25:48;14.63;;;6.80;;
4565;SDS011;2295;51.050;14.608;2022-10-31T09:28:19;19.17;;;7.80;;
4565;SDS011;2295;51.050;14.608;2022-10-31T09:30:49;17.53;;;7.50;;
4565;SDS011;2295;51.050;14.608;2022-10-31T09:33:19;24.83;;;6.97;;
4565;SDS011;2295;51.050;14.608;2022-10-31T09:35:51;20.40;;;7.50;;
4565;SDS011;2295;51.050;14.608;2022-10-31T09:38:19;16.30;;;7.10;;
4565;SDS011;2295;51.050;14.608;2022-10-31T09:40:52;19.63;;;8.13;;
4565;SDS011;2295;51.050;14.608;2022-10-31T09:43:31;27.23;;;7.07;;
4565;SDS011;2295;51.050;14.608;2022-10-31T09:46:07;25.50;;;7.33;;
4565;SDS011;2295;51.050;14.608;2022-10-31T09:48:45;18.70;;;9.03;;
4565;SDS011;2295;51.050;14.608;2022-10-31T09:51:22;25.80;;;7.23;;
4565;SDS011;2295;51.050;14.608;2022-10-31T09:53:57;22.43;;;7.63;;
4565;SDS011;2295;51.050;14.608;2022-10-31T09:56:30;24.50;;;6.77;;
4565;SDS011;2295;51.050;14.608;2022-10-31T09:59:03;21.00;;;8.20;;
4565;SDS011;2295;51.050;14.608;2022-10-31T10:01:39;16.83;;;6.77;;
4565;SDS011;2295;51.050;14.608;2022-10-31T10:04:19;18.10;;;6.67;;
4565;SDS011;2295;51.050;14.608;2022-10-31T10:06:58;20.00;;;6.70;;
4565;SDS011;2295;51.050;14.608;2022-10-31T10:09:27;22.00;;;6.90;;
4565;SDS011;2295;51.050;14.608;2022-10-31T10:11:59;12.20;;;6.60;;
4565;SDS011;2295;51.050;14.608;2022-10-31T10:14:44;12.50;;;6.10;;
4565;SDS011;2295;51.050;14.608;2022-10-31T10:17:25;21.67;;;6.77;;
4565;SDS011;2295;51.050;14.608;2022-10-31T10:20:10;18.73;;;6.47;;
4565;SDS011;2295;51.050;14.608;2022-10-31T10:22:50;17.40;;;7.43;;
4565;SDS011;2295;51.050;14.608;2022-10-31T10:25:22;18.37;;;6.90;;
4565;SDS011;2295;51.050;14.608;2022-10-31T10:27:56;22.63;;;7.10;;
4565;SDS011;2295;51.050;14.608;2022-10-31T10:30:37;17.60;;;7.00;;
4565;SDS011;2295;51.050;14.608;2022-10-31T10:33:09;21.43;;;5.97;;
4565;SDS011;2295;51.050;14.608;2022-10-31T10:35:41;15.07;;;6.70;;
4565;SDS011;2295;51.050;14.608;2022-10-31T10:38:15;15.33;;;5.93;;
4565;SDS011;2295;51.050;14.608;2022-10-31T10:40:49;19.10;;;6.07;;
4565;SDS011;2295;51.050;14.608;2022-10-31T10:43:22;18.10;;;6.87;;
4565;SDS011;2295;51.050;14.608;2022-10-31T10:45:59;22.50;;;7.70;;
4565;SDS011;2295;51.050;14.608;2022-10-31T10:48:57;15.23;;;6.40;;
4565;SDS011;2295;51.050;14.608;2022-10-31T10:51:36;15.60;;;5.37;;
4565;SDS011;2295;51.050;14.608;2022-10-31T10:57:20;18.03;;;6.10;;
4565;SDS011;2295;51.050;14.608;2022-10-31T10:59:55;21.83;;;6.60;;
4565;SDS011;2295;51.050;14.608;2022-10-31T11:02:27;23.30;;;7.20;;
4565;SDS011;2295;51.050;14.608;2022-10-31T11:05:02;18.10;;;6.33;;
4565;SDS011;2295;51.050;14.608;2022-10-31T11:07:41;23.87;;;6.63;;
4565;SDS011;2295;51.050;14.608;2022-10-31T11:10:11;19.67;;;6.53;;
4565;SDS011;2295;51.050;14.608;2022-10-31T11:12:42;22.77;;;7.30;;
4565;SDS011;2295;51.050;14.608;2022-10-31T11:15:18;15.70;;;6.07;;
4565;SDS011;2295;51.050;14.608;2022-10-31T11:17:50;12.00;;;6.00;;
4565;SDS011;2295;51.050;14.608;2022-10-31T11:20:23;17.60;;;5.50;;
4565;SDS011;2295;51.050;14.608;2022-10-31T11:23:02;19.50;;;5.97;;
4565;SDS011;2295;51.050;14.608;2022-10-31T11:25:38;15.30;;;6.27;;
4565;SDS011;2295;51.050;14.608;2022-10-31T11:28:08;19.53;;;5.57;;
4565;SDS011;2295;51.050;14.608;2022-10-31T11:30:42;12.47;;;4.90;;
4565;SDS011;2295;51.050;14.608;2022-10-31T11:33:16;22.93;;;5.80;;
4565;SDS011;2295;51.050;14.608;2022-10-31T11:35:50;26.73;;;5.90;;
4565;SDS011;2295;51.050;14.608;2022-10-31T11:38:26;22.40;;;6.40;;
4565;SDS011;2295;51.050;14.608;2022-10-31T11:41:00;17.33;;;6.37;;
4565;SDS011;2295;51.050;14.608;2022-10-31T11:43:37;16.00;;;5.97;;
4565;SDS011;2295;51.050;14.608;2022-10-31T11:46:09;16.47;;;5.60;;
4565;SDS011;2295;51.050;14.608;2022-10-31T11:48:47;13.43;;;4.90;;
4565;SDS011;2295;51.050;14.608;2022-10-31T11:51:20;20.63;;;5.93;;
4565;SDS011;2295;51.050;14.608;2022-10-31T11:53:50;20.67;;;6.33;;
4565;SDS011;2295;51.050;14.608;2022-10-31T11:56:25;20.77;;;6.17;;
4565;SDS011;2295;51.050;14.608;2022-10-31T11:58:54;15.30;;;6.50;;
4565;SDS011;2295;51.050;14.608;2022-10-31T12:01:24;18.03;;;6.40;;
4565;SDS011;2295;51.050;14.608;2022-10-31T12:03:58;25.37;;;6.13;;
4565;SDS011;2295;51.050;14.608;2022-10-31T12:06:32;14.37;;;5.27;;
4565;SDS011;2295;51.050;14.608;2022-10-31T12:09:07;16.93;;;5.70;;
4565;SDS011;2295;51.050;14.608;2022-10-31T12:11:48;30.47;;;10.23;;
4565;SDS011;2295;51.050;14.608;2022-10-31T12:14:44;32.10;;;8.20;;
4565;SDS011;2295;51.050;14.608;2022-10-31T12:17:20;18.10;;;7.00;;
4565;SDS011;2295;51.050;14.608;2022-10-31T12:20:00;14.20;;;7.80;;
4565;SDS011;2295;51.050;14.608;2022-10-31T12:22:36;22.33;;;7.10;;
4565;SDS011;2295;51.050;14.608;2022-10-31T12:25:16;15.20;;;6.43;;
4565;SDS011;2295;51.050;14.608;2022-10-31T12:28:00;26.83;;;6.13;;
4565;SDS011;2295;51.050;14.608;2022-10-31T12:30:40;21.50;;;6.50;;
4565;SDS011;2295;51.050;14.608;2022-10-31T12:33:21;21.67;;;6.33;;
4565;SDS011;2295;51.050;14.608;2022-10-31T12:36:03;15.70;;;5.90;;
4565;SDS011;2295;51.050;14.608;2022-10-31T12:38:47;16.53;;;6.60;;
4565;SDS011;2295;51.050;14.608;2022-10-31T12:41:45;19.33;;;6.30;;
4565;SDS011;2295;51.050;14.608;2022-10-31T12:44:22;24.67;;;6.10;;
4565;SDS011;2295;51.050;14.608;2022-10-31T12:50:11;17.07;;;5.77;;
4565;SDS011;2295;51.050;14.608;2022-10-31T12:52:50;15.60;;;5.97;;
4565;SDS011;2295;51.050;14.608;2022-10-31T12:55:31;19.10;;;5.70;;
4565;SDS011;2295;51.050;14.608;2022-10-31T12:58:07;11.43;;;5.07;;
4565;SDS011;2295;51.050;14.608;2022-10-31T13:00:40;16.97;;;5.50;;
4565;SDS011;2295;51.050;14.608;2022-10-31T13:03:17;23.30;;;6.50;;
4565;SDS011;2295;51.050;14.608;2022-10-31T13:05:53;14.03;;;5.70;;
4565;SDS011;2295;51.050;14.608;2022-10-31T13:08:27;17.30;;;5.57;;
4565;SDS011;2295;51.050;14.608;2022-10-31T13:11:02;12.57;;;5.70;;
4565;SDS011;2295;51.050;14.608;2022-10-31T13:13:40;11.87;;;5.80;;
4565;SDS011;2295;51.050;14.608;2022-10-31T13:16:13;14.80;;;6.20;;
4565;SDS011;2295;51.050;14.608;2022-10-31T13:18:46;18.27;;;7.37;;
4565;SDS011;2295;51.050;14.608;2022-10-31T13:21:18;18.63;;;6.70;;
4565;SDS011;2295;51.050;14.608;2022-10-31T13:23:50;17.03;;;6.70;;
4565;SDS011;2295;51.050;14.608;2022-10-31T13:26:21;34.20;;;7.23;;
4565;SDS011;2295;51.050;14.608;2022-10-31T13:28:56;23.93;;;7.00;;
4565;SDS011;2295;51.050;14.608;2022-10-31T13:31:29;15.10;;;6.53;;
4565;SDS011;2295;51.050;14.608;2022-10-31T13:33:59;17.90;;;6.43;;
4565;SDS011;2295;51.050;14.608;2022-10-31T13:36:31;15.90;;;6.27;;
4565;SDS011;2295;51.050;14.608;2022-10-31T13:39:10;24.50;;;6.53;;
4565;SDS011;2295;51.050;14.608;2022-10-31T13:41:48;22.83;;;6.30;;
4565;SDS011;2295;51.050;14.608;2022-10-31T13:44:20;15.27;;;6.53;;
4565;SDS011;2295;51.050;14.608;2022-10-31T13:46:51;20.47;;;6.30;;
4565;SDS011;2295;51.050;14.608;2022-10-31T13:49:25;23.47;;;6.03;;
4565;SDS011;2295;51.050;14.608;2022-10-31T13:52:05;20.23;;;6.60;;
4565;SDS011;2295;51.050;14.608;2022-10-31T13:54:43;21.93;;;6.67;;
4565;SDS011;2295;51.050;14.608;2022-10-31T13:57:15;26.30;;;7.60;;
4565;SDS011;2295;51.050;14.608;2022-10-31T13:59:47;21.13;;;6.93;;
4565;SDS011;2295;51.050;14.608;2022-10-31T14:02:21;18.23;;;6.70;;
4565;SDS011;2295;51.050;14.608;2022-10-31T14:04:55;17.13;;;5.97;;
4565;SDS011;2295;51.050;14.608;2022-10-31T14:07:26;15.90;;;6.80;;
4565;SDS011;2295;51.050;14.608;2022-10-31T14:09:59;14.60;;;6.03;;
4565;SDS011;2295;51.050;14.608;2022-10-31T14:12:31;16.93;;;5.90;;
4565;SDS011;2295;51.050;14.608;2022-10-31T14:15:05;17.27;;;6.40;;
4565;SDS011;2295;51.050;14.608;2022-10-31T14:17:48;15.67;;;5.90;;
4565;SDS011;2295;51.050;14.608;2022-10-31T14:20:24;20.27;;;6.70;;
4565;SDS011;2295;51.050;14.608;2022-10-31T14:23:09;21.37;;;6.80;;
4565;SDS011;2295;51.050;14.608;2022-10-31T14:25:40;17.37;;;6.60;;
4565;SDS011;2295;51.050;14.608;2022-10-31T14:28:19;17.60;;;6.00;;
4565;SDS011;2295;51.050;14.608;2022-10-31T14:30:52;16.63;;;6.20;;
4565;SDS011;2295;51.050;14.608;2022-10-31T14:33:25;24.60;;;6.57;;
4565;SDS011;2295;51.050;14.608;2022-10-31T14:35:56;19.70;;;7.13;;
4565;SDS011;2295;51.050;14.608;2022-10-31T14:38:38;17.43;;;6.60;;
4565;SDS011;2295;51.050;14.608;2022-10-31T14:41:21;16.03;;;6.53;;
4565;SDS011;2295;51.050;14.608;2022-10-31T14:44:16;23.63;;;5.50;;
4565;SDS011;2295;51.050;14.608;2022-10-31T14:47:12;14.70;;;5.63;;
4565;SDS011;2295;51.050;14.608;2022-10-31T14:49:57;24.73;;;6.27;;
4565;SDS011;2295;51.050;14.608;2022-10-31T14:52:40;16.13;;;6.03;;
4565;SDS011;2295;51.050;14.608;2022-10-31T14:55:10;39.63;;;7.07;;
4565;SDS011;2295;51.050;14.608;2022-10-31T14:57:44;38.43;;;7.47;;
4565;SDS011;2295;51.050;14.608;2022-10-31T15:00:16;15.87;;;6.80;;
4565;SDS011;2295;51.050;14.608;2022-10-31T15:02:48;19.27;;;6.90;;
4565;SDS011;2295;51.050;14.608;2022-10-31T15:05:26;14.63;;;6.50;;
4565;SDS011;2295;51.050;14.608;2022-10-31T15:07:56;15.47;;;7.27;;
4565;SDS011;2295;51.050;14.608;2022-10-31T15:10:26;13.07;;;6.67;;
4565;SDS011;2295;51.050;14.608;2022-10-31T15:13:09;21.15;;;7.10;;
4565;SDS011;2295;51.050;14.608;2022-10-31T15:15:38;28.47;;;7.53;;
4565;SDS011;2295;51.050;14.608;2022-10-31T15:18:14;16.20;;;6.40;;
4565;SDS011;2295;51.050;14.608;2022-10-31T15:20:45;19.52;;;7.93;;
4565;SDS011;2295;51.050;14.608;2022-10-31T15:23:15;23.75;;;7.70;;